createdAt,value
2019-03-09T00:01:53.417Z,93.80
2019-03-09T00:04:23.753Z,94.10
2019-03-09T00:06:54.064Z,94.20
2019-03-09T00:09:24.320Z,94.40
2019-03-09T00:11:54.548Z,94.40
2019-03-09T00:14:24.789Z,94.40
2019-03-09T00:16:55.079Z,94.50
2019-03-09T00:19:25.267Z,94.40
2019-03-09T00:21:55.537Z,94.20
2019-03-09T00:24:48.497Z,94.20
2019-03-09T00:27:30.374Z,94.20
2019-03-09T00:30:08.324Z,94.40
2019-03-09T00:32:38.609Z,94.10
2019-03-09T00:35:08.851Z,94.30
2019-03-09T00:37:39.117Z,94.20
2019-03-09T00:40:10.785Z,94.30
2019-03-09T00:42:42.003Z,94.50
2019-03-09T00:45:12.870Z,94.60
2019-03-09T00:47:43.162Z,94.70
2019-03-09T00:50:13.436Z,94.50
2019-03-09T00:52:43.722Z,94.80
2019-03-09T00:55:13.995Z,94.80
2019-03-09T00:57:44.259Z,94.90
2019-03-09T01:00:17.070Z,95.00
2019-03-09T01:02:47.444Z,95.00
2019-03-09T01:05:17.608Z,95.00
2019-03-09T01:07:47.985Z,95.00
2019-03-09T01:10:18.342Z,95.20
2019-03-09T01:12:48.530Z,95.10
2019-03-09T01:15:18.829Z,95.10
2019-03-09T01:17:49.092Z,95.20
2019-03-09T01:20:19.360Z,95.10
2019-03-09T01:22:49.653Z,95.10
2019-03-09T01:25:19.889Z,95.20
2019-03-09T01:27:50.170Z,95.20
2019-03-09T01:30:20.418Z,95.30
2019-03-09T01:32:50.648Z,95.80
2019-03-09T01:35:20.843Z,95.90
2019-03-09T01:37:51.024Z,96.30
2019-03-09T01:40:21.273Z,96.00
2019-03-09T01:42:51.560Z,95.90
2019-03-09T01:45:21.748Z,96.40
2019-03-09T01:47:51.992Z,96.10
2019-03-09T01:50:22.247Z,96.30
2019-03-09T01:52:52.449Z,96.30
2019-03-09T01:55:22.621Z,96.20
2019-03-09T01:57:52.902Z,96.30
2019-03-09T02:00:23.056Z,96.30
2019-03-09T02:02:53.325Z,96.40
2019-03-09T02:05:23.601Z,96.50
2019-03-09T02:07:53.818Z,96.50
2019-03-09T02:10:24.067Z,96.40
2019-03-09T02:12:54.302Z,96.60
2019-03-09T02:15:24.473Z,96.60
2019-03-09T02:17:54.680Z,96.80
2019-03-09T02:20:24.924Z,96.70
2019-03-09T02:22:55.196Z,96.80
2019-03-09T02:25:25.372Z,96.90
2019-03-09T02:27:55.633Z,96.90
2019-03-09T02:30:25.981Z,97.00
2019-03-09T02:32:56.234Z,97.10
2019-03-09T02:35:26.527Z,97.50
2019-03-09T02:37:59.456Z,97.50
2019-03-09T02:40:29.716Z,97.80
2019-03-09T02:42:59.890Z,98.10
2019-03-09T02:45:31.571Z,98.20
2019-03-09T02:48:01.746Z,98.30
2019-03-09T02:50:32.001Z,98.50
2019-03-09T02:53:02.178Z,98.60
2019-03-09T02:55:32.350Z,98.50
2019-03-09T02:58:02.609Z,98.30
2019-03-09T03:00:41.706Z,98.40
2019-03-09T03:03:11.901Z,98.60
2019-03-09T03:05:42.111Z,98.40
2019-03-09T03:08:12.321Z,98.30
2019-03-09T03:10:42.588Z,98.40
2019-03-09T03:13:12.832Z,98.30
2019-03-09T03:15:43.122Z,98.20
2019-03-09T03:18:13.334Z,98.10
2019-03-09T03:20:43.659Z,98.10
2019-03-09T03:23:13.855Z,98.20
2019-03-09T03:25:44.077Z,98.00
2019-03-09T03:28:14.265Z,98.00
2019-03-09T03:30:44.439Z,98.00
2019-03-09T03:33:14.705Z,98.00
2019-03-09T03:35:44.912Z,97.80
2019-03-09T03:38:15.164Z,97.70
2019-03-09T03:40:45.356Z,97.80
2019-03-09T03:43:16.297Z,97.90
2019-03-09T03:45:46.701Z,97.90
2019-03-09T03:48:16.880Z,97.90
2019-03-09T03:50:47.128Z,98.00
2019-03-09T03:53:17.315Z,97.80
2019-03-09T03:55:47.514Z,97.80
2019-03-09T03:58:18.660Z,97.70
2019-03-09T04:00:48.871Z,97.90
2019-03-09T04:03:19.046Z,97.90
2019-03-09T04:05:49.492Z,98.00
2019-03-09T04:08:20.169Z,98.00
2019-03-09T04:10:50.474Z,98.20
2019-03-09T04:13:20.753Z,98.00
2019-03-09T04:15:50.948Z,97.80
2019-03-09T04:18:21.216Z,97.50
2019-03-09T04:20:51.504Z,97.40
2019-03-09T04:23:21.704Z,97.40
2019-03-09T04:25:51.931Z,97.40
2019-03-09T04:28:22.246Z,97.20
2019-03-09T04:30:52.529Z,97.10
2019-03-09T04:33:22.693Z,97.00
2019-03-09T04:35:52.885Z,96.90
2019-03-09T04:38:23.141Z,97.00
2019-03-09T04:40:53.312Z,96.70
2019-03-09T04:43:23.565Z,96.90
2019-03-09T04:45:53.759Z,96.90
2019-03-09T04:48:23.988Z,96.80
2019-03-09T04:50:54.179Z,96.90
2019-03-09T04:53:24.438Z,96.90
2019-03-09T04:55:54.622Z,97.00
2019-03-09T04:58:24.874Z,96.90
2019-03-09T05:00:55.156Z,97.00
2019-03-09T05:03:25.354Z,97.10
2019-03-09T05:05:55.567Z,97.20
2019-03-09T05:09:02.341Z,97.30
2019-03-09T05:11:33.107Z,97.40
2019-03-09T05:14:12.100Z,98.00
2019-03-09T05:16:42.313Z,98.50
2019-03-09T05:19:12.500Z,98.60
2019-03-09T05:21:42.802Z,99.00
2019-03-09T05:24:13.066Z,99.00
2019-03-09T05:26:44.964Z,99.10
2019-03-09T05:29:15.338Z,99.50
2019-03-09T05:31:45.530Z,99.70
2019-03-09T05:34:15.768Z,99.90
2019-03-09T05:36:45.945Z,99.90
2019-03-09T05:39:16.191Z,99.90
2019-03-09T05:41:46.466Z,99.90
2019-03-09T05:44:16.636Z,99.90
2019-03-09T05:46:46.888Z,99.90
2019-03-09T05:49:17.161Z,99.90
2019-03-09T05:52:23.762Z,99.90
2019-03-09T05:54:54.029Z,99.90
2019-03-09T05:57:24.208Z,99.90
2019-03-09T05:59:54.395Z,99.90
2019-03-09T06:02:24.641Z,99.90
2019-03-09T06:04:54.806Z,99.90
2019-03-09T06:07:25.092Z,99.90
2019-03-09T06:09:55.273Z,99.90
2019-03-09T06:12:25.466Z,99.90
2019-03-09T06:14:55.708Z,99.90
2019-03-09T06:17:25.912Z,99.90
2019-03-09T06:19:56.096Z,99.90
2019-03-09T06:22:26.287Z,99.90
2019-03-09T06:24:56.461Z,99.90
2019-03-09T06:27:26.663Z,99.90
2019-03-09T06:29:56.925Z,99.90
2019-03-09T06:33:02.880Z,99.90
2019-03-09T06:35:33.143Z,99.90
2019-03-09T06:38:25.729Z,99.90
2019-03-09T06:41:02.727Z,99.90
2019-03-09T06:43:27.872Z,99.90
2019-03-09T06:45:58.076Z,99.90
2019-03-09T06:48:28.325Z,99.90
2019-03-09T06:50:58.605Z,99.90
2019-03-09T06:53:28.772Z,99.90
2019-03-09T06:55:59.043Z,99.90
2019-03-09T06:58:29.300Z,99.90
2019-03-09T07:00:59.672Z,99.90
2019-03-09T07:03:29.860Z,99.90
2019-03-09T07:06:00.036Z,99.90
2019-03-09T07:08:30.239Z,99.90
2019-03-09T07:11:00.438Z,99.90
2019-03-09T07:13:30.668Z,99.90
2019-03-09T07:16:00.858Z,99.90
2019-03-09T07:18:34.445Z,99.90
2019-03-09T07:21:04.683Z,99.90
2019-03-09T07:23:34.895Z,99.90
2019-03-09T07:26:05.166Z,99.90
2019-03-09T07:28:35.438Z,99.90
2019-03-09T07:31:05.692Z,99.90
2019-03-09T07:33:36.048Z,99.90
2019-03-09T07:36:06.498Z,99.90
2019-03-09T07:38:36.736Z,99.90
2019-03-09T07:41:07.055Z,99.90
2019-03-09T07:43:37.351Z,99.90
2019-03-09T07:46:07.532Z,99.90
2019-03-09T07:48:37.719Z,99.90
2019-03-09T07:51:07.909Z,99.90
2019-03-09T07:53:38.188Z,99.90
2019-03-09T07:56:08.477Z,99.90
2019-03-09T07:58:38.668Z,99.90
2019-03-09T08:01:08.934Z,99.90
2019-03-09T08:03:39.225Z,99.90
2019-03-09T08:06:09.412Z,99.90
2019-03-09T08:08:39.595Z,99.90
2019-03-09T08:11:09.849Z,99.90
2019-03-09T08:13:40.143Z,99.90
2019-03-09T08:16:10.311Z,99.90
2019-03-09T08:18:40.582Z,99.90
2019-03-09T08:21:10.933Z,99.90
2019-03-09T08:23:41.218Z,99.90
2019-03-09T08:26:11.464Z,99.70
2019-03-09T08:28:41.744Z,99.60
2019-03-09T08:31:12.095Z,99.30
2019-03-09T08:33:42.419Z,99.40
2019-03-09T08:36:12.657Z,99.50
2019-03-09T08:38:42.933Z,99.30
2019-03-09T08:41:13.344Z,99.00
2019-03-09T08:43:43.652Z,98.80
2019-03-09T08:46:13.926Z,99.10
2019-03-09T08:48:44.184Z,99.40
2019-03-09T08:51:14.463Z,99.20
2019-03-09T08:53:44.841Z,99.30
2019-03-09T08:56:15.041Z,99.30
2019-03-09T08:58:45.238Z,99.60
2019-03-09T09:01:15.528Z,99.70
2019-03-09T09:03:45.786Z,99.80
2019-03-09T09:06:17.771Z,99.60
2019-03-09T09:08:49.613Z,99.60
2019-03-09T09:11:19.898Z,99.40
2019-03-09T09:13:50.217Z,99.70
2019-03-09T09:16:20.499Z,99.60
2019-03-09T09:18:50.774Z,99.50
2019-03-09T09:21:21.153Z,99.80
2019-03-09T09:23:51.419Z,99.70
2019-03-09T09:26:21.716Z,99.30
2019-03-09T09:28:51.978Z,99.60
2019-03-09T09:31:22.417Z,99.50
2019-03-09T09:33:52.707Z,99.30
2019-03-09T09:36:22.935Z,99.10
2019-03-09T09:38:53.131Z,99.10
2019-03-09T09:41:23.445Z,99.00
2019-03-09T09:43:53.652Z,98.80
2019-03-09T09:46:23.940Z,98.90
2019-03-09T09:48:54.286Z,98.70
2019-03-09T09:51:24.564Z,98.80
2019-03-09T09:53:54.869Z,98.60
2019-03-09T09:56:25.212Z,98.80
2019-03-09T09:58:55.585Z,99.00
2019-03-09T10:01:25.920Z,99.00
2019-03-09T10:03:56.206Z,99.10
2019-03-09T10:06:27.904Z,99.30
2019-03-09T10:08:58.189Z,99.30
2019-03-09T10:11:28.449Z,99.30
2019-03-09T10:13:58.685Z,99.20
2019-03-09T10:16:28.903Z,99.20
2019-03-09T10:18:59.197Z,98.90
2019-03-09T10:21:29.517Z,98.90
2019-03-09T10:23:59.872Z,99.10
2019-03-09T10:26:30.083Z,98.90
2019-03-09T10:29:00.326Z,99.10
2019-03-09T10:31:30.626Z,99.00
2019-03-09T10:34:00.998Z,98.90
2019-03-09T10:36:31.260Z,98.80
2019-03-09T10:39:01.551Z,98.90
2019-03-09T10:41:31.837Z,98.90
2019-03-09T10:44:02.156Z,98.70
2019-03-09T10:46:32.478Z,98.70
2019-03-09T10:49:02.698Z,98.50
2019-03-09T10:51:32.980Z,98.80
2019-03-09T10:54:03.314Z,98.90
2019-03-09T10:56:33.600Z,98.80
2019-03-09T10:59:04.105Z,98.80
2019-03-09T11:01:34.367Z,98.90
2019-03-09T11:04:04.680Z,98.70
2019-03-09T11:06:34.897Z,98.50
2019-03-09T11:09:06.502Z,98.60
2019-03-09T11:11:37.026Z,98.60
2019-03-09T11:14:07.349Z,98.60
2019-03-09T11:16:37.642Z,98.50
2019-03-09T11:19:07.912Z,98.70
2019-03-09T11:21:38.216Z,98.60
2019-03-09T11:24:08.476Z,98.50
2019-03-09T11:26:38.805Z,98.50
2019-03-09T11:29:09.100Z,98.40
2019-03-09T11:31:39.385Z,98.50
2019-03-09T11:34:09.659Z,98.50
2019-03-09T11:36:39.928Z,98.60
2019-03-09T11:39:10.390Z,98.60
2019-03-09T11:41:40.694Z,98.30
2019-03-09T11:44:10.968Z,98.40
2019-03-09T11:46:41.332Z,98.20
2019-03-09T11:49:11.629Z,98.10
2019-03-09T11:51:42.828Z,97.90
2019-03-09T11:54:13.125Z,97.90
2019-03-09T11:56:43.337Z,97.80
2019-03-09T11:59:13.548Z,97.70
2019-03-09T12:01:43.861Z,97.80
2019-03-09T12:04:14.074Z,97.70
2019-03-09T12:06:44.381Z,97.90
2019-03-09T12:09:14.600Z,98.00
2019-03-09T12:11:54.566Z,98.00
2019-03-09T12:14:24.840Z,98.00
2019-03-09T12:16:55.057Z,97.90
2019-03-09T12:19:25.350Z,98.00
2019-03-09T12:21:55.653Z,98.10
2019-03-09T12:24:25.934Z,98.00
2019-03-09T12:26:56.234Z,98.10
2019-03-09T12:29:26.448Z,98.10
2019-03-09T12:31:56.797Z,98.10
2019-03-09T12:34:26.987Z,98.00
2019-03-09T12:36:57.277Z,97.80
2019-03-09T12:39:27.540Z,97.90
2019-03-09T12:41:57.848Z,97.80
2019-03-09T12:44:28.110Z,98.00
2019-03-09T12:46:58.337Z,98.00
2019-03-09T12:49:28.633Z,98.10
2019-03-09T12:51:58.845Z,98.10
2019-03-09T12:54:29.133Z,98.10
2019-03-09T12:56:59.405Z,98.00
2019-03-09T12:59:29.693Z,98.10
2019-03-09T13:01:59.917Z,98.00
2019-03-09T13:04:30.167Z,98.00
2019-03-09T13:07:00.385Z,97.70
2019-03-09T13:09:30.656Z,97.60
2019-03-09T13:12:00.967Z,97.40
2019-03-09T13:14:31.251Z,97.30
2019-03-09T13:17:01.480Z,97.40
2019-03-09T13:19:31.714Z,97.30
2019-03-09T13:22:02.019Z,97.30
2019-03-09T13:24:32.238Z,97.30
2019-03-09T13:27:02.526Z,97.20
2019-03-09T13:29:32.788Z,97.30
2019-03-09T13:32:03.024Z,97.80
2019-03-09T13:34:33.314Z,97.70
2019-03-09T13:37:03.537Z,97.70
2019-03-09T13:39:33.881Z,97.70
2019-03-09T13:42:04.146Z,97.70
2019-03-09T13:44:34.384Z,97.60
2019-03-09T13:47:04.759Z,97.40
2019-03-09T13:49:35.028Z,97.40
2019-03-09T13:52:05.335Z,97.30
2019-03-09T13:54:35.601Z,97.20
2019-03-09T13:57:05.872Z,97.30
2019-03-09T13:59:36.161Z,97.50
2019-03-09T14:02:06.362Z,97.50
2019-03-09T14:04:36.561Z,97.60
2019-03-09T14:07:06.883Z,98.00
2019-03-09T14:09:37.242Z,97.80
2019-03-09T14:12:07.553Z,98.00
2019-03-09T14:14:37.742Z,98.90
2019-03-09T14:17:08.051Z,99.30
2019-03-09T14:19:38.379Z,99.90
2019-03-09T14:22:08.741Z,99.90
2019-03-09T14:24:39.031Z,99.90
2019-03-09T14:27:09.369Z,99.90
2019-03-09T14:29:39.693Z,99.90
2019-03-09T14:32:10.065Z,99.90
2019-03-09T14:34:40.353Z,99.90
2019-03-09T14:37:10.589Z,99.90
2019-03-09T14:39:40.811Z,99.90
2019-03-09T14:42:11.092Z,99.90
2019-03-09T14:44:41.347Z,99.90
2019-03-09T14:47:11.618Z,99.90
2019-03-09T14:49:45.973Z,99.90
2019-03-09T14:52:16.403Z,99.90
2019-03-09T14:54:46.597Z,99.90
2019-03-09T14:57:16.904Z,99.90
2019-03-09T14:59:47.171Z,99.90
2019-03-09T15:02:17.408Z,99.90
2019-03-09T15:04:47.689Z,99.90
2019-03-09T15:07:17.974Z,99.90
2019-03-09T15:09:48.321Z,99.90
2019-03-09T15:12:18.604Z,99.90
2019-03-09T15:14:48.889Z,99.90
2019-03-09T15:17:19.195Z,99.90
2019-03-09T15:19:50.655Z,99.70
2019-03-09T15:22:21.036Z,99.90
2019-03-09T15:24:51.334Z,99.90
2019-03-09T15:27:21.577Z,99.90
2019-03-09T15:29:51.858Z,99.90
2019-03-09T15:32:22.173Z,99.90
2019-03-09T15:34:52.454Z,99.90
2019-03-09T15:37:22.691Z,99.90
2019-03-09T15:39:52.924Z,99.90
2019-03-09T15:42:23.145Z,99.90
2019-03-09T15:44:53.471Z,99.90
2019-03-09T15:47:23.856Z,99.90
2019-03-09T15:49:54.197Z,99.90
2019-03-09T15:52:24.428Z,99.90
2019-03-09T15:54:54.773Z,99.90
2019-03-09T15:57:25.130Z,99.90
2019-03-09T15:59:55.400Z,99.90
2019-03-09T16:02:25.747Z,99.90
2019-03-09T16:04:55.948Z,99.90
2019-03-09T16:07:26.300Z,99.90
2019-03-09T16:09:56.595Z,99.90
2019-03-09T16:12:26.892Z,99.90
2019-03-09T16:14:57.185Z,99.90
2019-03-09T16:17:27.438Z,99.90
2019-03-09T16:19:57.769Z,99.90
2019-03-09T16:22:28.086Z,99.90
2019-03-09T16:24:58.495Z,99.90
2019-03-09T16:27:28.787Z,99.90
2019-03-09T16:29:59.105Z,99.90
2019-03-09T16:32:29.321Z,99.90
2019-03-09T16:34:59.624Z,99.90
2019-03-09T16:37:29.916Z,99.90
2019-03-09T16:40:00.310Z,99.90
2019-03-09T16:42:30.545Z,99.90
2019-03-09T16:45:00.941Z,99.90
2019-03-09T16:47:31.282Z,99.90
2019-03-09T16:50:01.585Z,99.90
2019-03-09T16:52:31.882Z,99.90
2019-03-09T16:55:02.184Z,99.90
2019-03-09T16:57:32.447Z,99.90
2019-03-09T17:00:02.641Z,99.90
2019-03-09T17:02:32.997Z,99.90
2019-03-09T17:05:03.430Z,99.90
2019-03-09T17:07:33.663Z,99.90
2019-03-09T17:10:04.164Z,99.90
2019-03-09T17:12:34.483Z,99.90
2019-03-09T17:15:05.114Z,99.80
2019-03-09T17:17:35.362Z,99.90
2019-03-09T17:20:06.175Z,99.80
2019-03-09T17:22:36.444Z,99.80
2019-03-09T17:25:07.159Z,99.90
2019-03-09T17:27:37.506Z,99.90
2019-03-09T17:30:09.348Z,99.70
2019-03-09T17:32:39.631Z,99.90
2019-03-09T17:35:09.956Z,99.80
2019-03-09T17:37:40.354Z,99.60
2019-03-09T17:40:11.112Z,99.50
2019-03-09T17:42:41.365Z,99.60
2019-03-09T17:45:14.268Z,99.40
2019-03-09T17:47:44.550Z,99.50
2019-03-09T17:50:14.754Z,99.30
2019-03-09T17:52:45.083Z,99.00
2019-03-09T17:55:15.379Z,99.00
2019-03-09T17:57:45.803Z,98.90
2019-03-09T18:00:18.408Z,98.90
2019-03-09T18:02:48.821Z,98.90
2019-03-09T18:05:19.923Z,98.80
2019-03-09T18:07:50.474Z,98.80
2019-03-09T18:10:24.477Z,98.90
2019-03-09T18:12:54.795Z,98.90
2019-03-09T18:15:24.969Z,98.90
2019-03-09T18:17:55.246Z,99.10
2019-03-09T18:20:25.528Z,98.90
2019-03-09T18:22:55.840Z,99.00
2019-03-09T18:25:26.142Z,99.00
2019-03-09T18:27:56.542Z,99.10
2019-03-09T18:30:26.838Z,98.90
2019-03-09T18:32:57.052Z,99.10
2019-03-09T18:35:27.359Z,99.00
2019-03-09T18:37:57.695Z,98.80
2019-03-09T18:40:28.030Z,98.80
2019-03-09T18:42:58.361Z,99.00
2019-03-09T18:45:28.660Z,99.00
2019-03-09T18:47:58.952Z,99.20
2019-03-09T18:50:29.219Z,99.10
2019-03-09T18:52:59.455Z,99.10
2019-03-09T18:55:29.772Z,99.00
2019-03-09T18:58:00.110Z,99.10
2019-03-09T19:00:30.387Z,99.20
2019-03-09T19:03:00.649Z,99.20
2019-03-09T19:05:31.017Z,99.10
2019-03-09T19:08:01.283Z,98.90
2019-03-09T19:10:31.961Z,98.90
2019-03-09T19:13:02.290Z,98.90
2019-03-09T19:15:32.651Z,98.50
2019-03-09T19:18:02.920Z,98.40
2019-03-09T19:20:33.298Z,98.20
2019-03-09T19:23:03.579Z,98.10
2019-03-09T19:25:33.876Z,98.30
2019-03-09T19:28:04.179Z,97.80
2019-03-09T19:30:34.408Z,97.70
2019-03-09T19:33:04.714Z,97.60
2019-03-09T19:35:35.002Z,97.40
2019-03-09T19:38:05.277Z,97.30
2019-03-09T19:40:35.569Z,97.20
2019-03-09T19:43:05.856Z,97.00
2019-03-09T19:45:36.185Z,97.00
2019-03-09T19:48:06.540Z,96.70
2019-03-09T19:50:36.772Z,96.50
2019-03-09T19:53:07.057Z,96.50
2019-03-09T19:55:37.352Z,96.30
2019-03-09T19:58:07.731Z,96.20
2019-03-09T20:00:38.019Z,96.20
2019-03-09T20:03:08.334Z,96.00
2019-03-09T20:05:38.633Z,96.00
2019-03-09T20:08:08.968Z,96.00
2019-03-09T20:10:39.173Z,96.10
2019-03-09T20:13:09.520Z,96.00
2019-03-09T20:15:39.905Z,96.00
2019-03-09T20:18:10.148Z,95.90
2019-03-09T20:20:40.472Z,95.70
2019-03-09T20:23:10.807Z,95.40
2019-03-09T20:25:41.094Z,95.60
2019-03-09T20:28:11.452Z,95.60
2019-03-09T20:30:41.729Z,95.40
2019-03-09T20:33:12.002Z,95.50
2019-03-09T20:35:42.301Z,95.50
2019-03-09T20:38:12.645Z,95.60
2019-03-09T20:40:42.997Z,95.80
2019-03-09T20:43:13.336Z,95.90
2019-03-09T20:45:43.689Z,95.80
2019-03-09T20:48:14.050Z,96.10
2019-03-09T20:50:44.402Z,96.30
2019-03-09T20:53:14.725Z,96.30
2019-03-09T20:55:45.025Z,96.40
2019-03-09T20:58:15.468Z,96.70
2019-03-09T21:00:45.831Z,96.90
2019-03-09T21:03:16.196Z,97.10
2019-03-09T21:05:46.457Z,97.30
2019-03-09T21:08:16.774Z,97.50
2019-03-09T21:10:47.110Z,97.80
2019-03-09T21:13:17.330Z,98.00
2019-03-09T21:15:47.660Z,98.10
2019-03-09T21:18:17.953Z,98.40
2019-03-09T21:20:48.281Z,98.50
2019-03-09T21:23:18.626Z,98.70
2019-03-09T21:25:48.937Z,98.80
2019-03-09T21:28:19.297Z,98.80
2019-03-09T21:30:49.632Z,99.00
2019-03-09T21:33:20.050Z,99.00
2019-03-09T21:35:50.393Z,99.10
2019-03-09T21:38:20.705Z,99.20
2019-03-09T21:40:50.916Z,99.20
2019-03-09T21:43:21.245Z,99.30
2019-03-09T21:45:51.462Z,99.40
2019-03-09T21:48:21.785Z,99.40
2019-03-09T21:50:52.105Z,99.40
2019-03-09T21:53:22.400Z,99.50
2019-03-09T21:55:52.682Z,99.50
2019-03-09T21:58:23.001Z,99.60
2019-03-09T22:00:53.309Z,99.70
2019-03-09T22:03:23.604Z,99.80
2019-03-09T22:05:53.897Z,99.80
2019-03-09T22:08:24.251Z,99.80
2019-03-09T22:10:54.483Z,99.70
2019-03-09T22:13:24.708Z,99.90
2019-03-09T22:15:55.042Z,99.90
2019-03-09T22:18:25.250Z,99.90
2019-03-09T22:20:55.601Z,99.90
2019-03-09T22:23:25.934Z,99.90
2019-03-09T22:25:56.338Z,99.90
2019-03-09T22:28:26.620Z,99.90
2019-03-09T22:30:56.928Z,99.90
2019-03-09T22:33:27.211Z,99.90
2019-03-09T22:35:57.504Z,99.90
2019-03-09T22:38:27.692Z,99.90
2019-03-09T22:40:58.025Z,99.90
2019-03-09T22:43:28.314Z,99.90
2019-03-09T22:45:58.565Z,99.90
2019-03-09T22:48:28.873Z,99.90
2019-03-09T22:50:59.194Z,99.90
2019-03-09T22:53:29.390Z,99.90
2019-03-09T22:55:59.629Z,99.90
2019-03-09T22:58:29.932Z,99.90
2019-03-09T23:01:00.434Z,99.90
2019-03-09T23:03:30.747Z,99.90
2019-03-09T23:06:01.084Z,99.90
2019-03-09T23:08:31.319Z,99.90
2019-03-09T23:11:01.611Z,99.90
2019-03-09T23:13:31.812Z,99.90
2019-03-09T23:16:02.093Z,99.90
2019-03-09T23:18:32.378Z,99.90
2019-03-09T23:21:02.705Z,99.90
2019-03-09T23:23:32.961Z,99.90
2019-03-09T23:26:05.765Z,99.90
2019-03-09T23:28:46.342Z,99.90
2019-03-09T23:31:16.582Z,99.90
2019-03-09T23:33:46.850Z,99.90
2019-03-09T23:36:17.106Z,99.90
2019-03-09T23:38:47.368Z,99.90
2019-03-09T23:41:17.778Z,99.90
2019-03-09T23:43:47.992Z,99.90
2019-03-09T23:46:18.288Z,99.90
2019-03-09T23:48:50.279Z,99.90
2019-03-09T23:51:20.512Z,99.90
2019-03-09T23:53:50.748Z,99.90
2019-03-09T23:56:21.042Z,99.90
2019-03-09T23:58:51.225Z,99.90
